Weather at Palm Springs International Airport

Public forecast

Using degrees Fahrenheit for public forecast. Weather courtesy of forecast.io.

Current aviation weather report (METAR) for Palm Springs International Airport

Retrieved 2021/07/28 22:53 UTC (14 minutes ago):

KPSP 282253Z 14006KT 10SM CLR 42/14 A2985 RMK AO2 SLP103 T04170139

Aviation forecast (TAF) for Palm Springs International Airport

Retrieved 2021/07/28 18:27 UTC (5 hours ago):

TAF KPSP 281724Z 2818/2918 VRB05KT P6SM SCT250 FM281900 11008KT P6SM SCT250 FM290100 33010KT P6SM FEW250 FM290700 VRB05KT P6SM SKC